This is the latest recevied weather packets stored in our database for station/object W3JBS-2. If no packets are shown the sender has not sent any weather packets the latest 10 day(s).
| Time | Temp. | Humidity | Pressure | Rain* | Wind** | Luminosity | Snow |
|---|---|---|---|---|---|---|---|
| 1777441015 | 11.11° C | 63% | 1017.2 hPa | 0 mm | - | 1779 W/m² | - |
| 1777438314 | 11.67° C | 63% | 1016.9 hPa | 0 mm | - | 1779 W/m² | - |
| 1777437414 | 11.67° C | 62% | 1016.9 hPa | 0 mm | - | 1779 W/m² | - |
| 1777436515 | 11.67° C | 62% | 1017.3 hPa | 0 mm | - | 1779 W/m² | - |
| 1777434714 | 12.22° C | 63% | 1017.7 hPa | 0 mm | - | 1779 W/m² | - |
| 1777433814 | 12.22° C | 64% | 1017.7 hPa | 0 mm | - | 1779 W/m² | - |
| 1777432914 | 12.22° C | 63% | 1017.8 hPa | 0 mm | - | 1779 W/m² | - |
| 1777430214 | 12.22° C | 64% | 1017.3 hPa | 0 mm | - | 1779 W/m² | - |
| 1777427515 | 12.22° C | 66% | 1016.9 hPa | 0 mm | - | 1781 W/m² | - |
| 1777426614 | 12.22° C | 67% | 1017 hPa | 0 mm | - | 1781 W/m² | - |
| 1777425714 | 12.22° C | 67% | 1017.2 hPa | 0 mm | - | 1781 W/m² | - |
| 1777424814 | 12.78° C | 67% | 1017.2 hPa | 3.05 mm | - | 1781 W/m² | - |
| 1777423914 | 12.78° C | 68% | 1017.3 hPa | 3.05 mm | - | 1781 W/m² | - |
| 1777415814 | 14.44° C | 59% | 1018 hPa | 0 mm | - | 1781 W/m² | - |
| 1777414914 | 14.44° C | 60% | 1018 hPa | 0 mm | - | 1781 W/m² | - |
| 1777414015 | 14.44° C | 60% | 1018.1 hPa | 0 mm | - | 1781 W/m² | - |
| 1777413114 | 14.44° C | 59% | 1018.1 hPa | 0 mm | - | 1781 W/m² | - |
| 1777411314 | 14.44° C | 59% | 1018.1 hPa | 0 mm | - | 1781 W/m² | - |
| 1777410414 | 14.44° C | 60% | 1018 hPa | 0 mm | - | 1781 W/m² | - |
| 1777409514 | 14.44° C | 59% | 1018.1 hPa | 0 mm | - | 1781 W/m² | - |
| 1777408614 | 14.44° C | 58% | 1018.3 hPa | 0 mm | - | 1781 W/m² | - |
| 1777393314 | 15° C | 51% | 1021.1 hPa | 0 mm | - | 1777 W/m² | - |
| 1777391514 | 14.44° C | 53% | 1021.2 hPa | 0 mm | - | 1777 W/m² | - |
| 1777390614 | 13.89° C | 52% | 1021.3 hPa | 0 mm | - | 1777 W/m² | - |
| 1777387914 | 13.33° C | 54% | 1021.9 hPa | 0 mm | - | 1775 W/m² | - |
* Rain latest hour (hover to see other rain measurements)
** Current wind speed in m/s (hover to see current wind gust speed)